Time;durP1;ratioP1;P1;durP2;ratioP2;P2;SDS_P1;SDS_P2;PMS_P1;PMS_P2;Temp;Humidity;BMP_temperature;BMP_pressure;BME280_temperature;BME280_humidity;BME280_pressure;Samples;Min_cycle;Max_cycle;Signal;HPM_P1;HPM_P2
2023/07/07 00:00:22;;;;;;;4.57;2.70;;;15.90;99.90;;;;;;5010963;28;20450;-75
2023/07/07 00:02:49;;;;;;;5.67;2.40;;;15.80;99.90;;;;;;5000578;28;20458;-75
2023/07/07 00:05:17;;;;;;;3.93;2.30;;;15.80;99.90;;;;;;5010833;28;20470;-75
2023/07/07 00:07:44;;;;;;;4.27;2.90;;;15.70;99.90;;;;;;5008947;28;20426;-75
2023/07/07 00:10:11;;;;;;;3.13;2.57;;;15.60;99.90;;;;;;5008345;28;20465;-75
2023/07/07 00:12:38;;;;;;;2.53;2.33;;;15.60;99.90;;;;;;5009378;28;20445;-75
2023/07/07 00:15:05;;;;;;;5.93;2.87;;;15.50;99.90;;;;;;5010052;28;20480;-75
2023/07/07 00:17:32;;;;;;;3.70;2.80;;;15.50;99.90;;;;;;5004789;28;20829;-75
2023/07/07 00:20:02;;;;;;;8.80;2.90;;;15.50;99.90;;;;;;5010723;28;20421;-75
2023/07/07 00:22:31;;;;;;;3.33;2.90;;;15.40;99.90;;;;;;5002063;28;20455;-75
2023/07/07 00:24:58;;;;;;;3.23;2.77;;;15.40;99.90;;;;;;5010654;28;20505;-75
2023/07/07 00:27:24;;;;;;;3.53;2.57;;;15.40;99.90;;;;;;5010508;28;20947;-75
2023/07/07 00:29:51;;;;;;;3.77;2.63;;;15.30;99.90;;;;;;5003523;28;20543;-75
2023/07/07 00:32:18;;;;;;;4.20;2.50;;;15.30;99.90;;;;;;5002223;28;20434;-75
2023/07/07 00:34:44;;;;;;;3.53;2.83;;;15.30;99.90;;;;;;5013075;28;20478;-75
2023/07/07 00:37:11;;;;;;;3.13;2.80;;;15.30;99.90;;;;;;5012590;28;20867;-75
2023/07/07 00:39:39;;;;;;;4.73;2.33;;;15.30;99.90;;;;;;5012349;28;20482;-74
2023/07/07 00:42:06;;;;;;;5.43;2.60;;;15.30;99.90;;;;;;5013845;28;20458;-75
2023/07/07 00:45:17;;;;;;;2.77;2.53;;;15.20;99.90;;;;;;5013195;28;20461;-75
2023/07/07 00:47:49;;;;;;;5.47;2.83;;;15.20;99.90;;;;;;4972564;28;20483;-75
2023/07/07 00:50:19;;;;;;;5.67;3.27;;;15.20;99.90;;;;;;5004490;28;20519;-75
2023/07/07 00:52:46;;;;;;;6.50;3.37;;;15.20;99.90;;;;;;5013722;28;20457;-75
2023/07/07 00:55:19;;;;;;;7.63;3.10;;;15.20;99.90;;;;;;5009974;28;20953;-75
2023/07/07 00:57:46;;;;;;;4.50;3.33;;;15.30;99.90;;;;;;5009461;28;20459;-75
2023/07/07 01:00:14;;;;;;;5.67;3.40;;;15.10;99.90;;;;;;5013685;28;20446;-75
2023/07/07 01:02:48;;;;;;;4.00;3.53;;;15.10;99.90;;;;;;5013680;28;20436;-75
2023/07/07 01:05:14;;;;;;;5.83;3.27;;;15.00;99.90;;;;;;5013654;28;20941;-75
2023/07/07 01:07:51;;;;;;;6.00;2.77;;;14.90;99.90;;;;;;5008885;28;20458;-75
2023/07/07 01:10:20;;;;;;;6.30;3.63;;;14.90;99.90;;;;;;5008963;28;20493;-75
2023/07/07 01:12:49;;;;;;;5.97;3.10;;;14.90;99.90;;;;;;5013339;28;20458;-75
2023/07/07 01:15:16;;;;;;;3.77;2.83;;;14.90;99.90;;;;;;5011987;28;20521;-75
2023/07/07 01:17:59;;;;;;;10.20;3.27;;;14.90;99.90;;;;;;5011581;28;20467;-74
2023/07/07 01:20:32;;;;;;;9.30;2.90;;;14.80;99.90;;;;;;5011315;28;21154;-75
2023/07/07 01:23:35;;;;;;;5.80;2.77;;;14.80;99.90;;;;;;5011540;28;20831;-75
2023/07/07 01:26:22;;;;;;;4.00;3.30;;;14.80;99.90;;;;;;4997938;28;20450;-76
2023/07/07 01:29:27;;;;;;;3.50;2.50;;;14.70;99.90;;;;;;5008772;28;20485;-75
2023/07/07 01:31:58;;;;;;;6.20;3.03;;;14.70;99.90;;;;;;5003132;28;20446;-75
2023/07/07 01:34:26;;;;;;;3.10;2.87;;;14.70;99.90;;;;;;5003651;28;20479;-75
2023/07/07 01:36:53;;;;;;;8.27;3.10;;;14.70;99.90;;;;;;5004121;28;20512;-75
2023/07/07 01:39:19;;;;;;;11.03;3.30;;;14.60;99.90;;;;;;5012919;28;20853;-75
2023/07/07 01:41:57;;;;;;;4.33;3.03;;;14.60;99.90;;;;;;5012670;28;20977;-75
2023/07/07 01:44:33;;;;;;;7.80;3.43;;;14.60;99.90;;;;;;5013072;28;20510;-75
2023/07/07 01:47:11;;;;;;;3.40;3.07;;;14.60;99.90;;;;;;5012692;28;20496;-75
2023/07/07 01:49:42;;;;;;;5.60;3.10;;;14.50;99.90;;;;;;5011862;28;20490;-75
2023/07/07 01:52:14;;;;;;;3.27;2.97;;;14.40;99.90;;;;;;5007667;28;20466;-74
2023/07/07 01:54:53;;;;;;;6.40;2.73;;;14.40;99.90;;;;;;5012870;28;20486;-75
2023/07/07 01:57:22;;;;;;;8.03;3.13;;;14.40;99.90;;;;;;5005215;28;20432;-75
2023/07/07 01:59:49;;;;;;;9.40;3.00;;;14.30;99.90;;;;;;5011482;28;20497;-75
2023/07/07 02:02:17;;;;;;;10.37;2.80;;;14.30;99.90;;;;;;5012460;28;20454;-74
2023/07/07 02:04:44;;;;;;;4.13;3.07;;;14.30;99.90;;;;;;5012233;28;20906;-75
2023/07/07 02:07:11;;;;;;;3.40;2.87;;;14.20;99.90;;;;;;5005715;28;20949;-75
2023/07/07 02:09:39;;;;;;;3.07;2.70;;;14.10;99.90;;;;;;5004866;28;20847;-75
2023/07/07 02:12:06;;;;;;;5.10;3.03;;;14.10;99.90;;;;;;5007371;28;20966;-74
2023/07/07 02:14:33;;;;;;;6.90;3.20;;;14.00;99.90;;;;;;5011087;28;20880;-75
2023/07/07 02:17:00;;;;;;;7.73;2.93;;;14.00;99.90;;;;;;5009326;28;20607;-75
2023/07/07 02:19:28;;;;;;;4.87;2.60;;;14.00;99.90;;;;;;5012526;28;20443;-75
2023/07/07 02:21:54;;;;;;;3.33;2.77;;;13.90;99.90;;;;;;5010539;28;20458;-75
2023/07/07 02:24:21;;;;;;;3.93;2.77;;;13.90;99.90;;;;;;5012072;28;20814;-75
2023/07/07 02:26:49;;;;;;;4.30;3.27;;;13.80;99.90;;;;;;5011712;28;20512;-76
2023/07/07 02:29:16;;;;;;;5.60;2.53;;;13.80;99.90;;;;;;5012012;28;20457;-76
2023/07/07 02:31:43;;;;;;;4.27;2.77;;;13.70;99.90;;;;;;5005964;28;20470;-75
2023/07/07 02:34:09;;;;;;;3.47;2.77;;;13.70;99.90;;;;;;5005782;28;20470;-76
2023/07/07 02:36:37;;;;;;;7.73;2.67;;;13.60;99.90;;;;;;5011704;28;20442;-75
2023/07/07 02:39:04;;;;;;;4.90;2.90;;;13.50;99.90;;;;;;5005343;28;20463;-76
2023/07/07 02:41:31;;;;;;;4.73;2.83;;;13.50;99.90;;;;;;5011760;28;20451;-76
2023/07/07 02:43:58;;;;;;;4.63;2.87;;;13.40;99.90;;;;;;5010262;28;20469;-76
2023/07/07 02:46:24;;;;;;;2.97;2.77;;;13.40;99.90;;;;;;5011910;28;20512;-75
2023/07/07 02:48:51;;;;;;;5.30;2.87;;;13.40;99.90;;;;;;5011597;28;20455;-76
2023/07/07 02:51:18;;;;;;;3.83;2.70;;;13.40;99.90;;;;;;5011687;28;20514;-76
2023/07/07 02:53:46;;;;;;;9.60;2.90;;;13.40;99.90;;;;;;5009971;28;21068;-76
2023/07/07 02:56:12;;;;;;;7.23;2.80;;;13.40;99.90;;;;;;5011625;28;20454;-76
2023/07/07 02:58:39;;;;;;;4.10;2.70;;;13.40;99.90;;;;;;5006908;28;20512;-76
2023/07/07 03:01:10;;;;;;;4.60;3.00;;;13.40;99.90;;;;;;5011664;28;20494;-76
2023/07/07 03:03:38;;;;;;;4.60;3.00;;;13.30;99.90;;;;;;5011487;28;20568;-75
2023/07/07 03:06:09;;;;;;;5.07;3.23;;;13.30;99.90;;;;;;5009487;28;20462;-76
2023/07/07 03:08:37;;;;;;;2.90;2.70;;;13.30;99.90;;;;;;5011245;28;20512;-76
2023/07/07 03:11:07;;;;;;;3.20;2.83;;;13.30;99.90;;;;;;5009749;28;20494;-76
2023/07/07 03:13:34;;;;;;;4.70;3.20;;;13.20;99.90;;;;;;5011524;28;20532;-76
2023/07/07 03:16:08;;;;;;;6.83;3.43;;;13.20;99.90;;;;;;5011365;28;20454;-76
2023/07/07 03:18:35;;;;;;;5.50;3.30;;;13.10;99.90;;;;;;5007805;28;20943;-76
2023/07/07 03:21:02;;;;;;;4.10;3.33;;;13.10;99.90;;;;;;5003098;28;20545;-75
2023/07/07 03:23:28;;;;;;;4.03;3.27;;;13.00;99.90;;;;;;5010876;28;20528;-76
2023/07/07 03:25:55;;;;;;;4.93;3.07;;;13.00;99.90;;;;;;5008315;28;20514;-76
2023/07/07 03:28:23;;;;;;;4.23;3.10;;;13.00;99.90;;;;;;5000101;28;20950;-76
2023/07/07 03:30:50;;;;;;;5.00;2.83;;;13.00;99.90;;;;;;5009520;28;20491;-76
2023/07/07 03:33:17;;;;;;;3.83;3.30;;;13.00;99.90;;;;;;5011231;28;20458;-76
2023/07/07 03:35:43;;;;;;;3.10;2.80;;;13.00;99.90;;;;;;5010885;28;20505;-75
2023/07/07 03:38:10;;;;;;;2.90;2.70;;;12.90;99.90;;;;;;5011189;28;20458;-75
2023/07/07 03:40:36;;;;;;;6.60;2.53;;;12.90;99.90;;;;;;5011486;28;20450;-76
2023/07/07 03:43:03;;;;;;;3.33;2.77;;;12.90;99.90;;;;;;5001733;28;20520;-76
2023/07/07 03:45:34;;;;;;;6.63;3.33;;;12.90;99.90;;;;;;5010339;28;20479;-76
2023/07/07 03:48:01;;;;;;;3.77;2.67;;;12.90;99.90;;;;;;5009927;28;21202;-76
2023/07/07 03:50:27;;;;;;;6.00;3.70;;;12.90;99.90;;;;;;5010874;28;20482;-76
2023/07/07 03:52:54;;;;;;;4.93;3.10;;;12.90;99.90;;;;;;5011143;28;20512;-75
2023/07/07 03:55:21;;;;;;;2.90;2.50;;;12.90;99.90;;;;;;5004780;28;20482;-76
2023/07/07 03:57:47;;;;;;;4.47;2.97;;;13.00;99.90;;;;;;5009766;28;20947;-76
2023/07/07 04:00:14;;;;;;;7.60;3.03;;;12.90;99.90;;;;;;5009940;28;20458;-75
2023/07/07 04:02:44;;;;;;;3.80;2.90;;;13.00;99.90;;;;;;5010796;28;20520;-76
2023/07/07 04:05:11;;;;;;;7.23;3.10;;;13.00;99.90;;;;;;5006204;28;20506;-76
2023/07/07 04:07:37;;;;;;;5.00;3.70;;;13.00;99.90;;;;;;5014760;28;20449;-76
2023/07/07 04:10:04;;;;;;;3.90;3.03;;;13.00;99.90;;;;;;5014813;28;20894;-75
2023/07/07 04:12:31;;;;;;;3.30;3.00;;;13.10;99.90;;;;;;5010539;28;20526;-75
2023/07/07 04:14:59;;;;;;;5.40;3.27;;;13.10;99.90;;;;;;5013270;28;20497;-75
2023/07/07 04:17:26;;;;;;;4.07;2.80;;;13.20;99.90;;;;;;5013493;28;20500;-75
2023/07/07 04:19:54;;;;;;;2.90;2.60;;;13.20;99.90;;;;;;5014392;28;20879;-75
2023/07/07 04:22:21;;;;;;;6.17;3.20;;;13.20;99.90;;;;;;5014534;28;20505;-75
2023/07/07 04:25:06;;;;;;;6.40;3.30;;;13.30;99.90;;;;;;5014308;28;20478;-75
2023/07/07 04:27:33;;;;;;;2.93;2.63;;;13.30;99.90;;;;;;5013274;28;20454;-75
2023/07/07 04:29:59;;;;;;;5.60;3.13;;;13.30;99.90;;;;;;5013370;28;20429;-75
2023/07/07 04:32:26;;;;;;;5.47;3.40;;;13.40;99.90;;;;;;5010427;28;20454;-75
2023/07/07 04:34:54;;;;;;;8.30;3.10;;;13.50;99.90;;;;;;5011955;28;20480;-75
2023/07/07 04:37:21;;;;;;;8.33;3.20;;;13.50;99.90;;;;;;5014115;28;20871;-75
2023/07/07 04:39:49;;;;;;;7.33;3.03;;;13.60;99.90;;;;;;5013785;28;20930;-75
2023/07/07 04:42:16;;;;;;;3.40;2.93;;;13.70;99.90;;;;;;5007961;28;20451;-75
2023/07/07 04:44:43;;;;;;;4.50;2.90;;;13.70;99.90;;;;;;5012097;28;20548;-75
2023/07/07 04:47:09;;;;;;;3.23;2.93;;;13.80;99.90;;;;;;5006125;28;20454;-76
2023/07/07 04:49:36;;;;;;;3.40;3.10;;;13.80;99.90;;;;;;5014198;28;20497;-75
2023/07/07 04:52:05;;;;;;;4.57;3.23;;;13.90;99.90;;;;;;5013778;28;20544;-75
2023/07/07 04:54:32;;;;;;;5.23;2.90;;;14.00;99.90;;;;;;5013740;28;20470;-75
2023/07/07 04:56:58;;;;;;;3.50;3.03;;;14.10;99.90;;;;;;5013328;28;20505;-75
2023/07/07 04:59:26;;;;;;;3.07;2.77;;;14.10;99.90;;;;;;5013514;28;20935;-75
2023/07/07 05:01:53;;;;;;;5.40;2.87;;;14.30;99.90;;;;;;5012460;28;20454;-75
2023/07/07 05:04:19;;;;;;;5.10;3.10;;;14.30;99.90;;;;;;5013611;28;20474;-74
2023/07/07 05:06:46;;;;;;;3.37;3.07;;;14.40;99.90;;;;;;5013387;28;20533;-74
2023/07/07 05:09:16;;;;;;;10.73;3.10;;;14.50;99.90;;;;;;5013454;28;20450;-75
2023/07/07 05:11:42;;;;;;;3.73;3.10;;;14.60;99.90;;;;;;5013294;28;20490;-75
2023/07/07 05:14:09;;;;;;;4.50;2.90;;;14.70;99.90;;;;;;5011822;28;20475;-75
2023/07/07 05:16:37;;;;;;;3.73;3.07;;;14.80;99.90;;;;;;5011139;28;20520;-75
2023/07/07 05:19:04;;;;;;;3.50;3.10;;;14.90;99.90;;;;;;5012169;28;20454;-75
2023/07/07 05:21:31;;;;;;;2.70;2.50;;;14.90;99.90;;;;;;5011807;28;20459;-75
2023/07/07 05:23:58;;;;;;;3.63;3.30;;;15.10;99.90;;;;;;5012812;28;20517;-72
2023/07/07 05:26:28;;;;;;;7.90;3.00;;;15.20;99.90;;;;;;5005192;28;20507;-72
2023/07/07 05:28:56;;;;;;;15.83;3.70;;;15.20;99.90;;;;;;5012883;28;20450;-72
2023/07/07 05:31:23;;;;;;;6.20;3.57;;;15.30;99.90;;;;;;5010697;28;20486;-72
2023/07/07 05:33:51;;;;;;;3.90;3.30;;;15.40;99.90;;;;;;5012868;28;20462;-72
2023/07/07 05:36:17;;;;;;;3.50;3.20;;;15.50;99.90;;;;;;5012881;28;20458;-72
2023/07/07 05:38:44;;;;;;;3.30;3.00;;;15.60;99.90;;;;;;5012448;28;20696;-72
2023/07/07 05:41:11;;;;;;;5.60;3.33;;;15.80;99.90;;;;;;5004540;28;20455;-72
2023/07/07 05:43:39;;;;;;;4.90;3.10;;;15.90;99.90;;;;;;5012931;28;20577;-72
2023/07/07 05:46:07;;;;;;;3.67;3.30;;;16.10;99.90;;;;;;5012817;28;20516;-72
2023/07/07 05:48:34;;;;;;;3.20;2.90;;;16.30;99.90;;;;;;5011593;28;20470;-73
2023/07/07 05:51:04;;;;;;;9.43;3.70;;;16.50;99.90;;;;;;5009456;28;20486;-73
2023/07/07 05:53:31;;;;;;;4.57;3.20;;;16.70;99.90;;;;;;5009320;28;20470;-73
2023/07/07 05:56:06;;;;;;;9.37;3.53;;;16.90;99.90;;;;;;5012598;28;20462;-73
2023/07/07 05:58:33;;;;;;;7.43;4.10;;;17.10;99.90;;;;;;5012517;28;20457;-74
2023/07/07 06:01:02;;;;;;;7.63;3.10;;;17.30;99.90;;;;;;5012260;28;20436;-73
2023/07/07 06:03:29;;;;;;;4.83;2.87;;;17.40;99.90;;;;;;5012243;28;20482;-74
2023/07/07 06:05:55;;;;;;;5.73;2.90;;;17.60;99.90;;;;;;5012182;28;20454;-73
2023/07/07 06:08:22;;;;;;;4.60;2.93;;;17.70;99.90;;;;;;5007027;28;20482;-74
2023/07/07 06:10:49;;;;;;;6.20;2.93;;;17.80;99.90;;;;;;5005332;28;20462;-74
2023/07/07 06:13:17;;;;;;;16.30;3.27;;;18.00;99.90;;;;;;5009451;28;20421;-73
2023/07/07 06:15:43;;;;;;;3.20;2.90;;;18.10;99.90;;;;;;5003397;28;20469;-72
2023/07/07 06:18:12;;;;;;;6.33;2.97;;;18.30;99.90;;;;;;5006699;28;20654;-71
2023/07/07 06:20:38;;;;;;;6.40;3.40;;;18.50;99.90;;;;;;5011233;28;20483;-71
2023/07/07 06:23:08;;;;;;;6.63;2.73;;;18.70;99.90;;;;;;5007009;28;20426;-73
2023/07/07 06:25:34;;;;;;;6.57;3.07;;;18.80;99.90;;;;;;5001024;28;20496;-73
2023/07/07 06:28:01;;;;;;;3.30;2.80;;;19.00;99.90;;;;;;5008641;28;20486;-71
2023/07/07 06:30:28;;;;;;;5.60;3.30;;;19.20;99.90;;;;;;5006479;28;20927;-72
2023/07/07 06:32:58;;;;;;;3.30;3.00;;;19.50;99.90;;;;;;5008889;28;20465;-71
2023/07/07 06:35:26;;;;;;;7.73;2.80;;;19.70;99.90;;;;;;5011269;28;21004;-72
2023/07/07 06:37:53;;;;;;;2.77;2.50;;;20.00;99.90;;;;;;5006498;28;21129;-72
2023/07/07 06:40:19;;;;;;;2.63;2.43;;;20.20;99.90;;;;;;5011304;28;20451;-72
2023/07/07 06:42:46;;;;;;;3.43;3.10;;;20.50;99.90;;;;;;5011692;28;20454;-72
2023/07/07 06:45:13;;;;;;;4.13;2.60;;;20.70;99.90;;;;;;5011537;28;20474;-72
2023/07/07 06:47:39;;;;;;;4.40;3.47;;;20.90;99.90;;;;;;5011477;28;20607;-72
2023/07/07 06:50:07;;;;;;;3.10;2.50;;;21.00;99.90;;;;;;5011264;28;20893;-72
2023/07/07 06:52:35;;;;;;;3.33;2.60;;;21.20;99.90;;;;;;5005882;28;20494;-72
2023/07/07 06:55:02;;;;;;;4.00;2.50;;;21.30;99.90;;;;;;5011102;28;20497;-72
2023/07/07 06:57:28;;;;;;;3.60;2.67;;;21.50;99.90;;;;;;5009503;28;20880;-72
2023/07/07 06:59:55;;;;;;;4.50;2.80;;;21.80;99.90;;;;;;5011633;28;20492;-72
2023/07/07 07:02:22;;;;;;;4.50;2.40;;;22.00;99.90;;;;;;5011687;28;20446;-72
2023/07/07 07:04:48;;;;;;;3.37;2.33;;;22.20;99.90;;;;;;5008546;28;21068;-72
2023/07/07 07:07:15;;;;;;;3.20;2.40;;;22.40;99.90;;;;;;5009675;28;20447;-71
2023/07/07 07:09:43;;;;;;;3.57;2.37;;;22.60;99.90;;;;;;5011070;28;20458;-71
2023/07/07 07:12:10;;;;;;;2.80;2.57;;;22.70;99.90;;;;;;5010683;28;20544;-71
2023/07/07 07:14:36;;;;;;;2.90;2.50;;;22.60;99.90;;;;;;5010757;28;20508;-71
2023/07/07 07:17:03;;;;;;;7.70;2.47;;;22.70;99.90;;;;;;5010708;28;20876;-71
2023/07/07 07:19:30;;;;;;;2.47;2.23;;;22.60;99.90;;;;;;5009645;28;20517;-71
2023/07/07 07:21:56;;;;;;;3.40;2.63;;;22.60;99.90;;;;;;5004814;28;20943;-70
2023/07/07 07:24:23;;;;;;;6.47;2.93;;;22.80;99.90;;;;;;5009632;28;20478;-72
2023/07/07 07:26:51;;;;;;;4.20;2.00;;;22.90;99.90;;;;;;5009582;28;20672;-72
2023/07/07 07:29:18;;;;;;;10.53;2.50;;;23.10;99.90;;;;;;5000564;28;20520;-71
2023/07/07 07:31:45;;;;;;;19.27;3.70;;;23.20;99.90;;;;;;5005673;28;20485;-72
2023/07/07 07:34:23;;;;;;;12.20;2.60;;;23.30;99.90;;;;;;5009540;28;20470;-72
2023/07/07 07:36:51;;;;;;;11.97;2.80;;;23.50;99.90;;;;;;5010352;28;20460;-72
2023/07/07 07:39:18;;;;;;;6.30;2.20;;;23.80;99.90;;;;;;5000366;28;20458;-72
2023/07/07 07:41:46;;;;;;;2.97;2.00;;;24.00;99.90;;;;;;5014841;28;20450;-72
2023/07/07 07:44:14;;;;;;;4.50;2.43;;;24.20;99.90;;;;;;5013631;28;21019;-72
2023/07/07 07:46:41;;;;;;;4.53;2.80;;;24.10;99.90;;;;;;5006257;28;20518;-71
2023/07/07 07:49:08;;;;;;;3.00;2.70;;;24.00;99.90;;;;;;5015516;28;20820;-72
2023/07/07 07:51:37;;;;;;;4.70;2.40;;;24.20;99.90;;;;;;5011083;28;20481;-72
2023/07/07 07:54:04;;;;;;;14.30;2.80;;;24.30;99.90;;;;;;5014527;28;20504;-71
2023/07/07 07:56:31;;;;;;;4.43;2.10;;;24.50;99.90;;;;;;5014630;28;20955;-72
2023/07/07 07:58:57;;;;;;;3.30;2.47;;;24.70;99.90;;;;;;5014926;28;20454;-72
2023/07/07 08:01:26;;;;;;;2.87;2.30;;;24.80;99.90;;;;;;5014675;28;20442;-72
2023/07/07 08:03:52;;;;;;;2.37;2.13;;;24.80;99.90;;;;;;5009093;28;21052;-73
2023/07/07 08:06:19;;;;;;;3.40;2.70;;;24.80;99.90;;;;;;5013522;28;20528;-73
2023/07/07 08:08:46;;;;;;;3.30;2.20;;;24.80;99.90;;;;;;5010529;28;20454;-72
2023/07/07 08:11:14;;;;;;;4.67;2.50;;;24.90;99.90;;;;;;5012682;28;20620;-72
2023/07/07 08:13:41;;;;;;;5.90;2.53;;;24.70;99.90;;;;;;5014691;28;20474;-72
2023/07/07 08:16:09;;;;;;;6.47;2.40;;;24.50;99.90;;;;;;5014794;28;20450;-72
2023/07/07 08:18:37;;;;;;;4.30;2.57;;;24.30;99.90;;;;;;5010579;28;20893;-73
2023/07/07 08:21:04;;;;;;;9.70;2.53;;;24.80;99.90;;;;;;5014180;28;20931;-72
2023/07/07 08:23:31;;;;;;;5.50;2.67;;;25.00;99.90;;;;;;5014227;28;20510;-72
2023/07/07 08:25:57;;;;;;;3.63;2.63;;;25.20;99.90;;;;;;5012178;28;20508;-71
2023/07/07 08:28:24;;;;;;;3.40;3.10;;;25.30;99.90;;;;;;5003906;28;20500;-72
2023/07/07 08:30:51;;;;;;;4.20;2.43;;;25.40;99.90;;;;;;5006354;28;20451;-72
2023/07/07 08:33:20;;;;;;;5.00;2.50;;;25.50;99.90;;;;;;5012758;28;20493;-72
2023/07/07 08:35:48;;;;;;;4.93;2.27;;;25.30;99.90;;;;;;5013164;28;20462;-73
2023/07/07 08:38:15;;;;;;;5.20;2.50;;;25.60;99.90;;;;;;5003264;28;20470;-72
2023/07/07 08:40:46;;;;;;;6.80;2.50;;;25.80;99.90;;;;;;5003454;28;20462;-72
2023/07/07 08:43:13;;;;;;;12.63;2.53;;;25.90;99.90;;;;;;5013592;28;20450;-72
2023/07/07 08:45:47;;;;;;;5.00;2.40;;;26.20;99.90;;;;;;5014354;28;20462;-72
2023/07/07 08:48:21;;;;;;;3.23;2.40;;;26.20;99.90;;;;;;5013609;28;20454;-72
2023/07/07 08:50:54;;;;;;;4.77;3.00;;;26.20;99.90;;;;;;5011897;28;20466;-71
2023/07/07 08:53:37;;;;;;;2.97;2.23;;;26.00;99.90;;;;;;5013603;28;20489;-70
2023/07/07 08:56:14;;;;;;;6.80;2.53;;;26.40;99.90;;;;;;5013318;28;20453;-69
2023/07/07 08:58:50;;;;;;;5.17;2.50;;;26.90;99.90;;;;;;5013410;28;20939;-71
2023/07/07 09:01:26;;;;;;;9.70;2.40;;;27.20;99.90;;;;;;5013338;28;20450;-69
2023/07/07 09:04:15;;;;;;;3.13;2.40;;;27.50;99.90;;;;;;5008496;28;20894;-73
2023/07/07 09:06:59;;;;;;;4.07;2.47;;;27.60;99.90;;;;;;5005201;28;20871;-70
2023/07/07 09:09:45;;;;;;;3.90;2.53;;;27.60;99.80;;;;;;5012054;28;20446;-70
2023/07/07 09:12:36;;;;;;;4.23;2.73;;;27.60;99.90;;;;;;5004306;28;20489;-71
2023/07/07 09:15:06;;;;;;;2.80;2.40;;;27.50;99.90;;;;;;5012805;28;20553;-71
2023/07/07 09:17:38;;;;;;;5.83;2.50;;;27.80;99.90;;;;;;5006139;28;20454;-70
2023/07/07 09:20:08;;;;;;;4.07;2.70;;;27.80;98.90;;;;;;5003107;28;20450;-70
2023/07/07 09:22:41;;;;;;;3.50;2.63;;;27.70;98.00;;;;;;5006955;28;20508;-69
2023/07/07 09:25:18;;;;;;;3.27;2.30;;;27.60;97.90;;;;;;5013461;28;21032;-69
2023/07/07 09:27:50;;;;;;;5.50;2.80;;;27.60;98.10;;;;;;5012772;28;20862;-69
2023/07/07 09:30:25;;;;;;;7.00;2.83;;;27.70;97.80;;;;;;5009096;28;20508;-70
2023/07/07 09:32:51;;;;;;;4.43;2.40;;;28.10;98.30;;;;;;5012451;28;20489;-70
2023/07/07 09:35:21;;;;;;;9.17;2.50;;;28.60;97.80;;;;;;5011634;28;21033;-69
2023/07/07 09:37:59;;;;;;;2.87;2.43;;;28.90;97.20;;;;;;5012566;28;20458;-70
2023/07/07 09:40:32;;;;;;;2.90;2.50;;;29.30;97.00;;;;;;5012972;28;20512;-70
2023/07/07 09:43:10;;;;;;;3.13;2.13;;;29.30;93.50;;;;;;5013016;28;20450;-70
2023/07/07 09:45:42;;;;;;;6.80;2.70;;;29.10;92.00;;;;;;5012753;28;20450;-70
2023/07/07 09:48:24;;;;;;;3.77;2.80;;;28.80;92.10;;;;;;5011791;28;20450;-70
2023/07/07 09:51:00;;;;;;;8.20;3.20;;;28.70;92.40;;;;;;5000290;28;20458;-70
2023/07/07 09:53:31;;;;;;;3.20;2.90;;;28.50;91.50;;;;;;5012862;28;20498;-69
2023/07/07 09:55:59;;;;;;;6.90;2.70;;;28.50;92.10;;;;;;5012422;28;20465;-70
2023/07/07 09:58:30;;;;;;;3.70;2.50;;;28.20;91.60;;;;;;5011863;28;20481;-70
2023/07/07 10:01:00;;;;;;;4.77;2.43;;;28.30;92.10;;;;;;5012266;28;20501;-71
2023/07/07 10:03:33;;;;;;;2.63;2.40;;;28.70;92.30;;;;;;5009689;28;20443;-70
2023/07/07 10:06:01;;;;;;;3.87;2.87;;;29.00;92.40;;;;;;5008024;28;20517;-70
2023/07/07 10:08:30;;;;;;;3.50;2.67;;;29.20;91.30;;;;;;5012399;28;20450;-72
2023/07/07 10:11:15;;;;;;;3.27;2.97;;;29.20;90.60;;;;;;5009529;28;20463;-71
2023/07/07 10:13:41;;;;;;;3.97;2.90;;;29.10;90.80;;;;;;5009594;28;20497;-72
2023/07/07 10:16:15;;;;;;;3.30;2.30;;;28.90;90.60;;;;;;5009018;28;20485;-71
2023/07/07 10:18:42;;;;;;;4.90;3.30;;;28.80;90.90;;;;;;5011911;28;20453;-72
2023/07/07 10:21:09;;;;;;;5.73;2.87;;;28.50;90.80;;;;;;5012300;28;20458;-73
2023/07/07 10:23:39;;;;;;;5.43;2.93;;;28.60;91.80;;;;;;5006665;28;20466;-73
2023/07/07 10:26:07;;;;;;;5.63;3.40;;;28.90;91.50;;;;;;5011717;28;20451;-72
2023/07/07 10:28:34;;;;;;;6.67;3.27;;;28.90;90.20;;;;;;5012003;28;20496;-72
2023/07/07 10:31:02;;;;;;;8.70;3.60;;;28.90;90.60;;;;;;5007306;28;20566;-72
2023/07/07 10:33:29;;;;;;;3.50;2.70;;;29.00;91.40;;;;;;5010708;28;21125;-73
2023/07/07 10:35:55;;;;;;;5.60;3.40;;;29.30;90.70;;;;;;5011442;28;20454;-72
2023/07/07 10:38:24;;;;;;;6.33;3.17;;;29.20;90.20;;;;;;5011139;28;20454;-72
2023/07/07 10:40:53;;;;;;;6.13;3.30;;;29.40;90.70;;;;;;5012195;28;20466;-73
2023/07/07 10:43:23;;;;;;;3.00;2.53;;;29.80;90.30;;;;;;5008706;28;20733;-72
2023/07/07 10:45:50;;;;;;;4.97;3.67;;;30.00;91.00;;;;;;5008759;28;20462;-72
2023/07/07 10:48:16;;;;;;;9.20;3.00;;;30.20;90.70;;;;;;5011238;28;20469;-72
2023/07/07 10:50:56;;;;;;;4.13;3.13;;;30.20;89.60;;;;;;5009181;28;20462;-72
2023/07/07 10:53:32;;;;;;;5.13;3.17;;;30.10;89.20;;;;;;5008912;28;20490;-72
2023/07/07 10:56:22;;;;;;;6.50;3.73;;;30.10;88.20;;;;;;5010040;28;21020;-72
2023/07/07 10:59:34;;;;;;;3.93;2.90;;;30.50;90.30;;;;;;5002401;28;20450;-72
2023/07/07 11:02:25;;;;;;;5.53;3.30;;;30.80;87.30;;;;;;4996799;28;20454;-73
2023/07/07 11:05:20;;;;;;;6.77;3.03;;;30.70;86.40;;;;;;5011357;28;20987;-72
2023/07/07 11:07:54;;;;;;;8.70;3.10;;;30.60;87.80;;;;;;5003945;28;20512;-72
2023/07/07 11:10:47;;;;;;;5.10;3.73;;;30.70;88.00;;;;;;5008366;28;20446;-72
2023/07/07 11:13:24;;;;;;;3.57;3.17;;;30.90;86.10;;;;;;5010984;28;20909;-72
2023/07/07 11:16:00;;;;;;;5.80;3.40;;;31.20;87.30;;;;;;5010105;28;20453;-73
2023/07/07 11:18:41;;;;;;;4.70;3.10;;;31.40;86.80;;;;;;5004981;28;20455;-72
2023/07/07 11:21:19;;;;;;;6.00;3.50;;;31.50;85.00;;;;;;4999617;28;20842;-72
2023/07/07 11:24:09;;;;;;;4.23;3.03;;;31.60;86.10;;;;;;5003133;28;20527;-72
2023/07/07 11:26:51;;;;;;;4.80;3.00;;;31.90;82.90;;;;;;5011379;28;20505;-72
2023/07/07 11:29:28;;;;;;;6.77;3.23;;;31.60;81.70;;;;;;5011501;28;20457;-72
2023/07/07 11:32:09;;;;;;;3.20;2.90;;;31.00;80.60;;;;;;5004912;28;20873;-72
2023/07/07 11:34:49;;;;;;;4.90;3.30;;;30.50;82.10;;;;;;5010962;28;20470;-72
2023/07/07 11:37:28;;;;;;;12.20;3.80;;;30.60;83.30;;;;;;5010770;28;20449;-73
2023/07/07 11:40:08;;;;;;;3.67;3.33;;;30.40;82.70;;;;;;5010437;28;20454;-72
2023/07/07 11:42:56;;;;;;;4.23;3.83;;;30.70;81.80;;;;;;5010883;28;20793;-73
2023/07/07 11:45:32;;;;;;;7.07;3.87;;;30.70;81.30;;;;;;4994923;28;20478;-72
2023/07/07 11:48:12;;;;;;;4.17;3.73;;;30.70;79.20;;;;;;5005306;28;20454;-72
2023/07/07 11:50:57;;;;;;;4.37;3.50;;;30.80;79.70;;;;;;5010764;28;20523;-72
2023/07/07 11:53:43;;;;;;;3.70;3.20;;;30.80;79.30;;;;;;5009811;28;21005;-73
2023/07/07 11:56:23;;;;;;;4.17;3.70;;;30.70;79.30;;;;;;5010596;28;20817;-72
2023/07/07 11:58:58;;;;;;;5.30;3.73;;;30.70;78.70;;;;;;5010795;28;20446;-72
2023/07/07 12:01:31;;;;;;;5.10;4.10;;;30.80;80.10;;;;;;5008423;28;20457;-72
2023/07/07 12:04:06;;;;;;;8.43;4.20;;;30.30;78.70;;;;;;5010734;28;20521;-72
2023/07/07 12:06:36;;;;;;;5.27;3.83;;;30.50;80.00;;;;;;5010444;28;20865;-72
2023/07/07 12:09:10;;;;;;;6.57;4.67;;;30.70;78.40;;;;;;5009842;28;20442;-72
2023/07/07 12:11:41;;;;;;;6.60;4.37;;;30.90;77.20;;;;;;5006033;28;20959;-72
2023/07/07 12:14:19;;;;;;;6.50;4.27;;;31.10;75.00;;;;;;5010584;28;21054;-72
2023/07/07 12:16:49;;;;;;;5.67;4.63;;;31.60;77.10;;;;;;5006060;28;20454;-72
2023/07/07 12:19:25;;;;;;;8.17;4.77;;;31.90;74.90;;;;;;5000243;28;20524;-72
2023/07/07 12:21:54;;;;;;;6.30;4.67;;;32.30;75.40;;;;;;5010734;28;20450;-72
2023/07/07 12:24:28;;;;;;;5.73;4.80;;;32.70;74.00;;;;;;5006502;28;20551;-72
2023/07/07 12:27:08;;;;;;;5.43;3.80;;;33.00;75.20;;;;;;4998535;28;20971;-72
2023/07/07 12:29:39;;;;;;;7.00;5.20;;;33.20;74.30;;;;;;5013848;28;20453;-72
2023/07/07 12:32:08;;;;;;;5.80;4.80;;;32.90;73.20;;;;;;5003302;28;20518;-72
2023/07/07 12:34:39;;;;;;;6.87;5.57;;;32.80;72.70;;;;;;5005690;28;20491;-72
2023/07/07 12:37:13;;;;;;;6.03;5.17;;;32.30;71.50;;;;;;5014010;28;20456;-71
2023/07/07 12:39:54;;;;;;;6.70;5.07;;;31.70;71.60;;;;;;5006180;28;20465;-71
2023/07/07 12:42:21;;;;;;;9.70;5.30;;;31.60;71.90;;;;;;5014724;28;20461;-72
2023/07/07 12:44:48;;;;;;;7.60;5.20;;;31.40;72.50;;;;;;5013876;28;20470;-71
2023/07/07 12:47:28;;;;;;;6.93;5.43;;;31.50;71.20;;;;;;5013797;28;20796;-72
2023/07/07 12:49:58;;;;;;;8.97;6.03;;;31.60;70.30;;;;;;5013536;28;20537;-72
2023/07/07 12:52:30;;;;;;;6.50;4.87;;;31.70;71.20;;;;;;5010864;28;21248;-71
2023/07/07 12:55:16;;;;;;;6.10;4.83;;;31.80;72.70;;;;;;5012772;28;20474;-70
2023/07/07 12:58:03;;;;;;;5.87;4.50;;;32.10;73.10;;;;;;5013948;28;20760;-72
2023/07/07 13:00:32;;;;;;;7.60;4.60;;;32.80;73.60;;;;;;5013693;28;20451;-71
2023/07/07 13:03:18;;;;;;;7.07;4.07;;;33.10;71.40;;;;;;5011160;28;20508;-70